sensor_id;sensor_type;location;lat;lon;timestamp;pressure;altitude;pressure_sealevel;temperature;humidity
11329;BME280;5719;42.714;23.732;2024-03-07T00:01:48;94223.91;;;7.45;100.00
11329;BME280;5719;42.714;23.732;2024-03-07T00:04:15;94225.66;;;7.44;100.00
11329;BME280;5719;42.714;23.732;2024-03-07T00:06:42;94224.94;;;7.42;100.00
11329;BME280;5719;42.714;23.732;2024-03-07T00:09:09;94219.50;;;7.47;100.00
11329;BME280;5719;42.714;23.732;2024-03-07T00:11:36;94221.75;;;7.51;100.00
11329;BME280;5719;42.714;23.732;2024-03-07T00:14:03;94218.34;;;7.51;100.00
11329;BME280;5719;42.714;23.732;2024-03-07T00:16:32;94211.59;;;7.50;100.00
11329;BME280;5719;42.714;23.732;2024-03-07T00:19:00;94204.06;;;7.47;100.00
11329;BME280;5719;42.714;23.732;2024-03-07T00:21:26;94205.97;;;7.57;100.00
11329;BME280;5719;42.714;23.732;2024-03-07T00:23:53;94223.22;;;7.55;100.00
11329;BME280;5719;42.714;23.732;2024-03-07T00:26:20;94220.94;;;7.51;100.00
11329;BME280;5719;42.714;23.732;2024-03-07T00:28:47;94213.75;;;7.43;100.00
11329;BME280;5719;42.714;23.732;2024-03-07T00:31:14;94216.31;;;7.43;100.00
11329;BME280;5719;42.714;23.732;2024-03-07T00:33:42;94212.06;;;7.42;100.00
11329;BME280;5719;42.714;23.732;2024-03-07T00:36:09;94217.50;;;7.37;100.00
11329;BME280;5719;42.714;23.732;2024-03-07T00:38:36;94212.84;;;7.30;100.00
11329;BME280;5719;42.714;23.732;2024-03-07T00:41:03;94211.03;;;7.18;100.00
11329;BME280;5719;42.714;23.732;2024-03-07T00:43:30;94209.50;;;7.15;100.00
11329;BME280;5719;42.714;23.732;2024-03-07T00:45:56;94192.38;;;7.02;100.00
11329;BME280;5719;42.714;23.732;2024-03-07T00:48:23;94202.06;;;7.11;100.00
11329;BME280;5719;42.714;23.732;2024-03-07T00:50:52;94192.41;;;7.14;100.00
11329;BME280;5719;42.714;23.732;2024-03-07T00:53:19;94198.19;;;7.18;100.00
11329;BME280;5719;42.714;23.732;2024-03-07T00:55:46;94197.13;;;7.08;100.00
11329;BME280;5719;42.714;23.732;2024-03-07T00:58:12;94207.84;;;7.14;100.00
11329;BME280;5719;42.714;23.732;2024-03-07T01:00:39;94201.63;;;7.04;100.00
11329;BME280;5719;42.714;23.732;2024-03-07T01:03:08;94204.84;;;7.08;100.00
11329;BME280;5719;42.714;23.732;2024-03-07T01:05:36;94199.53;;;6.97;100.00
11329;BME280;5719;42.714;23.732;2024-03-07T01:08:05;94200.72;;;7.05;100.00
11329;BME280;5719;42.714;23.732;2024-03-07T01:10:32;94194.19;;;7.14;100.00
11329;BME280;5719;42.714;23.732;2024-03-07T01:12:59;94193.00;;;7.05;100.00
11329;BME280;5719;42.714;23.732;2024-03-07T01:15:28;94192.72;;;7.10;100.00
11329;BME280;5719;42.714;23.732;2024-03-07T01:17:54;94203.88;;;7.23;100.00
11329;BME280;5719;42.714;23.732;2024-03-07T01:20:21;94203.31;;;7.18;100.00
11329;BME280;5719;42.714;23.732;2024-03-07T01:22:50;94198.19;;;7.18;100.00
11329;BME280;5719;42.714;23.732;2024-03-07T01:25:18;94200.19;;;7.27;100.00
11329;BME280;5719;42.714;23.732;2024-03-07T01:27:47;94202.56;;;7.30;100.00
11329;BME280;5719;42.714;23.732;2024-03-07T01:30:14;94195.41;;;7.35;100.00
11329;BME280;5719;42.714;23.732;2024-03-07T01:32:42;94188.53;;;7.21;100.00
11329;BME280;5719;42.714;23.732;2024-03-07T01:35:08;94198.72;;;7.23;100.00
11329;BME280;5719;42.714;23.732;2024-03-07T01:37:35;94200.09;;;7.28;100.00
11329;BME280;5719;42.714;23.732;2024-03-07T01:40:02;94191.69;;;7.12;100.00
11329;BME280;5719;42.714;23.732;2024-03-07T01:42:32;94194.22;;;7.26;100.00
11329;BME280;5719;42.714;23.732;2024-03-07T01:44:59;94184.06;;;7.25;100.00
11329;BME280;5719;42.714;23.732;2024-03-07T01:47:25;94186.66;;;7.37;100.00
11329;BME280;5719;42.714;23.732;2024-03-07T01:49:52;94190.28;;;7.48;100.00
11329;BME280;5719;42.714;23.732;2024-03-07T01:52:19;94193.59;;;7.62;100.00
11329;BME280;5719;42.714;23.732;2024-03-07T01:54:48;94195.88;;;7.67;100.00
11329;BME280;5719;42.714;23.732;2024-03-07T01:57:16;94179.81;;;7.63;100.00
11329;BME280;5719;42.714;23.732;2024-03-07T01:59:45;94186.63;;;7.64;100.00
11329;BME280;5719;42.714;23.732;2024-03-07T02:02:12;94183.91;;;7.53;100.00
11329;BME280;5719;42.714;23.732;2024-03-07T02:04:38;94187.75;;;7.60;100.00
11329;BME280;5719;42.714;23.732;2024-03-07T02:07:05;94188.66;;;7.59;100.00
11329;BME280;5719;42.714;23.732;2024-03-07T02:09:36;94186.41;;;7.67;100.00
11329;BME280;5719;42.714;23.732;2024-03-07T02:12:04;94187.25;;;7.68;100.00
11329;BME280;5719;42.714;23.732;2024-03-07T02:14:31;94190.13;;;7.63;100.00
11329;BME280;5719;42.714;23.732;2024-03-07T02:16:59;94177.91;;;7.40;100.00
11329;BME280;5719;42.714;23.732;2024-03-07T02:19:26;94181.00;;;7.45;100.00
11329;BME280;5719;42.714;23.732;2024-03-07T02:21:54;94184.84;;;7.52;100.00
11329;BME280;5719;42.714;23.732;2024-03-07T02:24:20;94178.34;;;7.47;100.00
11329;BME280;5719;42.714;23.732;2024-03-07T02:26:47;94191.88;;;7.36;100.00
11329;BME280;5719;42.714;23.732;2024-03-07T02:29:14;94192.63;;;7.38;100.00
11329;BME280;5719;42.714;23.732;2024-03-07T02:31:41;94201.03;;;7.40;100.00
11329;BME280;5719;42.714;23.732;2024-03-07T02:34:07;94191.88;;;7.36;100.00
11329;BME280;5719;42.714;23.732;2024-03-07T02:36:34;94189.63;;;7.31;100.00
11329;BME280;5719;42.714;23.732;2024-03-07T02:39:02;94205.28;;;7.41;100.00
11329;BME280;5719;42.714;23.732;2024-03-07T02:41:29;94208.69;;;7.42;100.00
11329;BME280;5719;42.714;23.732;2024-03-07T02:43:57;94205.06;;;7.31;100.00
11329;BME280;5719;42.714;23.732;2024-03-07T02:46:23;94214.72;;;7.28;100.00
11329;BME280;5719;42.714;23.732;2024-03-07T02:48:50;94218.56;;;6.94;100.00
11329;BME280;5719;42.714;23.732;2024-03-07T02:51:17;94222.88;;;6.79;100.00
11329;BME280;5719;42.714;23.732;2024-03-07T02:53:43;94225.63;;;6.90;100.00
11329;BME280;5719;42.714;23.732;2024-03-07T02:56:11;94237.84;;;6.73;100.00
11329;BME280;5719;42.714;23.732;2024-03-07T02:58:38;94239.88;;;6.54;100.00
11329;BME280;5719;42.714;23.732;2024-03-07T03:01:06;94238.03;;;6.41;100.00
11329;BME280;5719;42.714;23.732;2024-03-07T03:03:33;94253.34;;;6.29;100.00
11329;BME280;5719;42.714;23.732;2024-03-07T03:06:00;94253.16;;;6.32;100.00
11329;BME280;5719;42.714;23.732;2024-03-07T03:08:26;94260.50;;;6.38;100.00
11329;BME280;5719;42.714;23.732;2024-03-07T03:10:54;94253.63;;;6.24;100.00
11329;BME280;5719;42.714;23.732;2024-03-07T03:13:23;94247.03;;;6.34;100.00
11329;BME280;5719;42.714;23.732;2024-03-07T03:15:53;94243.47;;;6.37;100.00
11329;BME280;5719;42.714;23.732;2024-03-07T03:18:21;94238.78;;;6.29;100.00
11329;BME280;5719;42.714;23.732;2024-03-07T03:20:47;94246.31;;;6.32;100.00
11329;BME280;5719;42.714;23.732;2024-03-07T03:23:14;94247.50;;;6.41;100.00
11329;BME280;5719;42.714;23.732;2024-03-07T03:25:41;94228.78;;;6.39;100.00
11329;BME280;5719;42.714;23.732;2024-03-07T03:28:08;94242.00;;;6.47;100.00
11329;BME280;5719;42.714;23.732;2024-03-07T03:30:37;94225.31;;;6.12;100.00
11329;BME280;5719;42.714;23.732;2024-03-07T03:33:04;94246.81;;;6.09;100.00
11329;BME280;5719;42.714;23.732;2024-03-07T03:35:32;94249.16;;;5.98;100.00
11329;BME280;5719;42.714;23.732;2024-03-07T03:37:59;94251.19;;;5.93;100.00
11329;BME280;5719;42.714;23.732;2024-03-07T03:40:26;94245.06;;;5.96;100.00
11329;BME280;5719;42.714;23.732;2024-03-07T03:42:53;94236.63;;;5.94;100.00
11329;BME280;5719;42.714;23.732;2024-03-07T03:45:20;94252.06;;;6.08;100.00
11329;BME280;5719;42.714;23.732;2024-03-07T03:47:48;94246.56;;;6.14;100.00
11329;BME280;5719;42.714;23.732;2024-03-07T03:50:15;94260.47;;;6.10;100.00
11329;BME280;5719;42.714;23.732;2024-03-07T03:52:43;94261.75;;;6.03;100.00
11329;BME280;5719;42.714;23.732;2024-03-07T03:55:10;94261.94;;;6.14;100.00
11329;BME280;5719;42.714;23.732;2024-03-07T03:57:39;94259.38;;;6.14;100.00
11329;BME280;5719;42.714;23.732;2024-03-07T04:00:07;94243.06;;;6.01;100.00
11329;BME280;5719;42.714;23.732;2024-03-07T04:02:38;94260.28;;;5.99;100.00
11329;BME280;5719;42.714;23.732;2024-03-07T04:05:07;94263.59;;;6.01;100.00
11329;BME280;5719;42.714;23.732;2024-03-07T04:07:36;94254.94;;;6.02;100.00
11329;BME280;5719;42.714;23.732;2024-03-07T04:10:03;94250.38;;;5.93;100.00
11329;BME280;5719;42.714;23.732;2024-03-07T04:12:32;94225.28;;;5.68;100.00
11329;BME280;5719;42.714;23.732;2024-03-07T04:14:59;94245.69;;;5.69;100.00
11329;BME280;5719;42.714;23.732;2024-03-07T04:17:26;94246.28;;;5.59;100.00
11329;BME280;5719;42.714;23.732;2024-03-07T04:19:53;94258.38;;;5.57;100.00
11329;BME280;5719;42.714;23.732;2024-03-07T04:22:21;94279.97;;;5.53;100.00
11329;BME280;5719;42.714;23.732;2024-03-07T04:24:48;94283.03;;;5.59;100.00
11329;BME280;5719;42.714;23.732;2024-03-07T04:27:19;94258.50;;;5.69;100.00
11329;BME280;5719;42.714;23.732;2024-03-07T04:29:47;94243.13;;;5.69;100.00
11329;BME280;5719;42.714;23.732;2024-03-07T04:32:15;94237.94;;;5.55;100.00
11329;BME280;5719;42.714;23.732;2024-03-07T04:34:43;94203.69;;;5.26;100.00
11329;BME280;5719;42.714;23.732;2024-03-07T04:37:10;94240.69;;;5.52;100.00
11329;BME280;5719;42.714;23.732;2024-03-07T04:39:38;94220.97;;;5.38;100.00
11329;BME280;5719;42.714;23.732;2024-03-07T04:42:06;94220.56;;;5.30;100.00
11329;BME280;5719;42.714;23.732;2024-03-07T04:44:34;94213.63;;;5.17;100.00
11329;BME280;5719;42.714;23.732;2024-03-07T04:47:02;94207.09;;;4.95;100.00
11329;BME280;5719;42.714;23.732;2024-03-07T04:49:31;94226.63;;;4.98;100.00
11329;BME280;5719;42.714;23.732;2024-03-07T04:51:58;94226.94;;;4.92;100.00
11329;BME280;5719;42.714;23.732;2024-03-07T04:54:27;94227.03;;;4.75;100.00
11329;BME280;5719;42.714;23.732;2024-03-07T04:56:55;94218.78;;;4.85;100.00
11329;BME280;5719;42.714;23.732;2024-03-07T04:59:22;94214.00;;;4.95;100.00
11329;BME280;5719;42.714;23.732;2024-03-07T05:01:49;94213.88;;;4.97;100.00
11329;BME280;5719;42.714;23.732;2024-03-07T05:04:17;94215.63;;;4.96;100.00
11329;BME280;5719;42.714;23.732;2024-03-07T05:06:44;94229.09;;;5.00;100.00
11329;BME280;5719;42.714;23.732;2024-03-07T05:09:13;94225.03;;;4.95;100.00
11329;BME280;5719;42.714;23.732;2024-03-07T05:11:48;94231.66;;;5.00;100.00
11329;BME280;5719;42.714;23.732;2024-03-07T05:14:18;94224.38;;;4.92;100.00
11329;BME280;5719;42.714;23.732;2024-03-07T05:16:46;94197.13;;;4.75;100.00
11329;BME280;5719;42.714;23.732;2024-03-07T05:19:27;94231.81;;;4.97;100.00
11329;BME280;5719;42.714;23.732;2024-03-07T05:21:55;94244.63;;;4.97;100.00
11329;BME280;5719;42.714;23.732;2024-03-07T05:24:21;94241.75;;;4.87;100.00
11329;BME280;5719;42.714;23.732;2024-03-07T05:26:48;94223.06;;;4.85;100.00
11329;BME280;5719;42.714;23.732;2024-03-07T05:29:15;94235.78;;;4.86;100.00
11329;BME280;5719;42.714;23.732;2024-03-07T05:31:44;94246.47;;;4.94;100.00
11329;BME280;5719;42.714;23.732;2024-03-07T05:34:12;94247.03;;;4.84;100.00
11329;BME280;5719;42.714;23.732;2024-03-07T05:36:40;94234.63;;;4.76;100.00
11329;BME280;5719;42.714;23.732;2024-03-07T05:39:09;94234.28;;;4.51;100.00
11329;BME280;5719;42.714;23.732;2024-03-07T05:41:36;94250.56;;;4.81;100.00
11329;BME280;5719;42.714;23.732;2024-03-07T05:44:03;94260.75;;;4.99;100.00
11329;BME280;5719;42.714;23.732;2024-03-07T05:46:33;94258.03;;;5.02;100.00
11329;BME280;5719;42.714;23.732;2024-03-07T05:49:02;94259.00;;;5.15;100.00
11329;BME280;5719;42.714;23.732;2024-03-07T05:51:29;94262.63;;;5.26;100.00
11329;BME280;5719;42.714;23.732;2024-03-07T05:53:56;94234.81;;;5.05;100.00
11329;BME280;5719;42.714;23.732;2024-03-07T05:56:22;94273.84;;;5.39;100.00
11329;BME280;5719;42.714;23.732;2024-03-07T05:58:49;94276.75;;;5.49;100.00
11329;BME280;5719;42.714;23.732;2024-03-07T06:01:16;94275.31;;;5.59;100.00
11329;BME280;5719;42.714;23.732;2024-03-07T06:03:43;94273.25;;;5.66;100.00
11329;BME280;5719;42.714;23.732;2024-03-07T06:06:12;94247.13;;;5.59;100.00
11329;BME280;5719;42.714;23.732;2024-03-07T06:08:38;94260.13;;;5.56;100.00
11329;BME280;5719;42.714;23.732;2024-03-07T06:11:08;94256.72;;;5.56;100.00
11329;BME280;5719;42.714;23.732;2024-03-07T06:13:35;94249.22;;;5.53;100.00
11329;BME280;5719;42.714;23.732;2024-03-07T06:16:02;94248.72;;;5.46;100.00
11329;BME280;5719;42.714;23.732;2024-03-07T06:18:33;94250.13;;;5.36;100.00
11329;BME280;5719;42.714;23.732;2024-03-07T06:21:00;94252.69;;;5.36;100.00
11329;BME280;5719;42.714;23.732;2024-03-07T06:23:31;94259.13;;;5.43;100.00
11329;BME280;5719;42.714;23.732;2024-03-07T06:25:58;94256.72;;;5.56;100.00
11329;BME280;5719;42.714;23.732;2024-03-07T06:28:26;94252.91;;;5.63;100.00
11329;BME280;5719;42.714;23.732;2024-03-07T06:30:57;94261.19;;;5.68;100.00
11329;BME280;5719;42.714;23.732;2024-03-07T06:33:24;94215.06;;;5.52;100.00
11329;BME280;5719;42.714;23.732;2024-03-07T06:35:51;94232.16;;;5.81;100.00
11329;BME280;5719;42.714;23.732;2024-03-07T06:38:18;94235.25;;;6.02;100.00
11329;BME280;5719;42.714;23.732;2024-03-07T06:40:48;94241.16;;;6.18;100.00
11329;BME280;5719;42.714;23.732;2024-03-07T06:43:14;94233.53;;;6.17;100.00
11329;BME280;5719;42.714;23.732;2024-03-07T06:45:41;94242.19;;;6.44;100.00
11329;BME280;5719;42.714;23.732;2024-03-07T06:48:08;94248.97;;;6.59;100.00
11329;BME280;5719;42.714;23.732;2024-03-07T06:50:35;94239.53;;;6.74;100.00
11329;BME280;5719;42.714;23.732;2024-03-07T06:53:02;94239.97;;;6.80;100.00
11329;BME280;5719;42.714;23.732;2024-03-07T06:55:29;94259.25;;;7.14;100.00
11329;BME280;5719;42.714;23.732;2024-03-07T06:57:57;94260.06;;;7.15;100.00
11329;BME280;5719;42.714;23.732;2024-03-07T07:00:24;94268.16;;;7.23;100.00
11329;BME280;5719;42.714;23.732;2024-03-07T07:02:52;94267.97;;;7.12;100.00
11329;BME280;5719;42.714;23.732;2024-03-07T07:05:20;94270.50;;;6.99;100.00
11329;BME280;5719;42.714;23.732;2024-03-07T07:07:47;94278.56;;;6.93;100.00
11329;BME280;5719;42.714;23.732;2024-03-07T07:10:14;94286.91;;;6.97;100.00
11329;BME280;5719;42.714;23.732;2024-03-07T07:12:44;94248.84;;;6.89;100.00
11329;BME280;5719;42.714;23.732;2024-03-07T07:15:13;94289.53;;;7.23;100.00
11329;BME280;5719;42.714;23.732;2024-03-07T07:17:41;94289.13;;;6.88;100.00
11329;BME280;5719;42.714;23.732;2024-03-07T07:20:11;94305.81;;;6.67;100.00
11329;BME280;5719;42.714;23.732;2024-03-07T07:22:40;94307.09;;;6.46;100.00
11329;BME280;5719;42.714;23.732;2024-03-07T07:25:08;94303.25;;;6.09;100.00
11329;BME280;5719;42.714;23.732;2024-03-07T07:27:40;94301.97;;;6.02;100.00
11329;BME280;5719;42.714;23.732;2024-03-07T07:30:09;94313.06;;;6.03;100.00
11329;BME280;5719;42.714;23.732;2024-03-07T07:32:38;94272.03;;;5.57;100.00
11329;BME280;5719;42.714;23.732;2024-03-07T07:35:05;94302.94;;;5.70;100.00
11329;BME280;5719;42.714;23.732;2024-03-07T07:37:35;94309.97;;;5.66;100.00
11329;BME280;5719;42.714;23.732;2024-03-07T07:40:03;94298.16;;;5.48;100.00
11329;BME280;5719;42.714;23.732;2024-03-07T07:42:33;94315.53;;;5.43;100.00
11329;BME280;5719;42.714;23.732;2024-03-07T07:45:00;94319.34;;;5.36;100.00
11329;BME280;5719;42.714;23.732;2024-03-07T07:47:27;94317.84;;;5.32;100.00
11329;BME280;5719;42.714;23.732;2024-03-07T07:49:55;94315.88;;;5.37;100.00
11329;BME280;5719;42.714;23.732;2024-03-07T07:52:22;94315.88;;;5.37;100.00
11329;BME280;5719;42.714;23.732;2024-03-07T07:54:48;94301.97;;;5.41;100.00
11329;BME280;5719;42.714;23.732;2024-03-07T07:57:15;94289.34;;;5.38;100.00
11329;BME280;5719;42.714;23.732;2024-03-07T07:59:42;94290.66;;;5.45;100.00
11329;BME280;5719;42.714;23.732;2024-03-07T08:02:09;94289.56;;;5.49;100.00
11329;BME280;5719;42.714;23.732;2024-03-07T08:04:36;94291.13;;;5.52;100.00
11329;BME280;5719;42.714;23.732;2024-03-07T08:07:05;94298.22;;;5.62;100.00
11329;BME280;5719;42.714;23.732;2024-03-07T08:09:32;94306.91;;;5.75;100.00
11329;BME280;5719;42.714;23.732;2024-03-07T08:11:59;94312.34;;;5.85;100.00
11329;BME280;5719;42.714;23.732;2024-03-07T08:14:28;94314.31;;;5.96;100.00
11329;BME280;5719;42.714;23.732;2024-03-07T08:16:55;94311.41;;;6.02;100.00
11329;BME280;5719;42.714;23.732;2024-03-07T08:19:22;94312.78;;;5.93;100.00
11329;BME280;5719;42.714;23.732;2024-03-07T08:21:48;94312.66;;;5.95;100.00
11329;BME280;5719;42.714;23.732;2024-03-07T08:24:17;94305.78;;;5.95;100.00
11329;BME280;5719;42.714;23.732;2024-03-07T08:26:43;94312.69;;;6.09;100.00
11329;BME280;5719;42.714;23.732;2024-03-07T08:29:12;94303.00;;;6.14;100.00
11329;BME280;5719;42.714;23.732;2024-03-07T08:31:39;94289.53;;;6.10;100.00
11329;BME280;5719;42.714;23.732;2024-03-07T08:34:05;94282.84;;;6.08;100.00
11329;BME280;5719;42.714;23.732;2024-03-07T08:36:32;94294.69;;;6.24;100.00
11329;BME280;5719;42.714;23.732;2024-03-07T08:38:59;94285.81;;;6.30;100.00
11329;BME280;5719;42.714;23.732;2024-03-07T08:41:27;94276.41;;;6.45;100.00
11329;BME280;5719;42.714;23.732;2024-03-07T08:43:54;94282.38;;;6.59;100.00
11329;BME280;5719;42.714;23.732;2024-03-07T08:46:21;94287.03;;;6.81;100.00
11329;BME280;5719;42.714;23.732;2024-03-07T08:48:48;94289.41;;;6.98;100.00
11329;BME280;5719;42.714;23.732;2024-03-07T08:51:15;94283.53;;;7.10;100.00
11329;BME280;5719;42.714;23.732;2024-03-07T08:53:43;94289.63;;;7.22;100.00
11329;BME280;5719;42.714;23.732;2024-03-07T08:56:09;94298.16;;;7.22;100.00
11329;BME280;5719;42.714;23.732;2024-03-07T08:58:38;94308.41;;;7.36;100.00
11329;BME280;5719;42.714;23.732;2024-03-07T09:01:04;94316.97;;;7.37;100.00
11329;BME280;5719;42.714;23.732;2024-03-07T09:03:31;94323.59;;;7.27;100.00
11329;BME280;5719;42.714;23.732;2024-03-07T09:05:58;94329.28;;;7.18;100.00
11329;BME280;5719;42.714;23.732;2024-03-07T09:08:25;94332.41;;;7.23;100.00
11329;BME280;5719;42.714;23.732;2024-03-07T09:10:52;94330.75;;;7.22;100.00
11329;BME280;5719;42.714;23.732;2024-03-07T09:13:20;94322.13;;;7.23;100.00
11329;BME280;5719;42.714;23.732;2024-03-07T09:15:48;94319.81;;;7.32;100.00
11329;BME280;5719;42.714;23.732;2024-03-07T09:18:15;94318.25;;;7.30;100.00
11329;BME280;5719;42.714;23.732;2024-03-07T09:20:42;94310.50;;;7.17;100.00
11329;BME280;5719;42.714;23.732;2024-03-07T09:23:09;94325.53;;;7.23;100.00
11329;BME280;5719;42.714;23.732;2024-03-07T09:25:35;94293.06;;;7.08;100.00
11329;BME280;5719;42.714;23.732;2024-03-07T09:28:03;94317.44;;;7.29;100.00
11329;BME280;5719;42.714;23.732;2024-03-07T09:30:30;94320.00;;;7.29;100.00
11329;BME280;5719;42.714;23.732;2024-03-07T09:32:58;94319.53;;;7.37;100.00
11329;BME280;5719;42.714;23.732;2024-03-07T09:35:27;94315.19;;;7.52;100.00
11329;BME280;5719;42.714;23.732;2024-03-07T09:37:53;94321.41;;;7.62;100.00
11329;BME280;5719;42.714;23.732;2024-03-07T09:40:21;94321.25;;;7.77;100.00
11329;BME280;5719;42.714;23.732;2024-03-07T09:42:50;94325.44;;;7.93;100.00
11329;BME280;5719;42.714;23.732;2024-03-07T09:45:20;94323.00;;;8.16;100.00
11329;BME280;5719;42.714;23.732;2024-03-07T09:47:49;94319.13;;;8.23;100.00
11329;BME280;5719;42.714;23.732;2024-03-07T09:50:19;94322.00;;;8.19;100.00
11329;BME280;5719;42.714;23.732;2024-03-07T09:52:48;94328.69;;;8.21;100.00
11329;BME280;5719;42.714;23.732;2024-03-07T09:55:15;94314.28;;;8.19;100.00
11329;BME280;5719;42.714;23.732;2024-03-07T09:57:42;94315.81;;;8.21;100.00
11329;BME280;5719;42.714;23.732;2024-03-07T10:00:10;94319.75;;;8.27;100.00
11329;BME280;5719;42.714;23.732;2024-03-07T10:02:44;94324.88;;;8.27;97.92
11329;BME280;5719;42.714;23.732;2024-03-07T10:05:15;94322.06;;;8.31;100.00
11329;BME280;5719;42.714;23.732;2024-03-07T10:07:43;94317.94;;;8.29;99.85
11329;BME280;5719;42.714;23.732;2024-03-07T10:10:11;94318.66;;;8.31;97.58
11329;BME280;5719;42.714;23.732;2024-03-07T10:12:38;94305.13;;;8.27;99.33
11329;BME280;5719;42.714;23.732;2024-03-07T10:15:05;94309.66;;;8.24;99.78
11329;BME280;5719;42.714;23.732;2024-03-07T10:17:35;94309.44;;;8.27;99.87
11329;BME280;5719;42.714;23.732;2024-03-07T10:20:04;94302.88;;;8.23;100.00
11329;BME280;5719;42.714;23.732;2024-03-07T10:22:35;94319.03;;;8.25;100.00
11329;BME280;5719;42.714;23.732;2024-03-07T10:25:04;94316.00;;;8.06;97.74
11329;BME280;5719;42.714;23.732;2024-03-07T10:27:31;94312.44;;;7.81;99.59
11329;BME280;5719;42.714;23.732;2024-03-07T10:29:57;94318.19;;;7.85;100.00
11329;BME280;5719;42.714;23.732;2024-03-07T10:32:24;94297.06;;;7.80;100.00
11329;BME280;5719;42.714;23.732;2024-03-07T10:34:52;94314.41;;;7.90;100.00
11329;BME280;5719;42.714;23.732;2024-03-07T10:37:20;94291.41;;;7.75;100.00
11329;BME280;5719;42.714;23.732;2024-03-07T10:39:47;94307.72;;;7.88;100.00
11329;BME280;5719;42.714;23.732;2024-03-07T10:42:17;94301.34;;;7.94;100.00
11329;BME280;5719;42.714;23.732;2024-03-07T10:44:45;94293.28;;;7.85;100.00
11329;BME280;5719;42.714;23.732;2024-03-07T10:47:16;94303.31;;;7.90;100.00
11329;BME280;5719;42.714;23.732;2024-03-07T10:49:52;94285.03;;;7.80;100.00
11329;BME280;5719;42.714;23.732;2024-03-07T10:52:28;94303.38;;;7.88;100.00
11329;BME280;5719;42.714;23.732;2024-03-07T10:55:08;94303.59;;;7.85;100.00
11329;BME280;5719;42.714;23.732;2024-03-07T10:57:44;94308.00;;;7.83;100.00
11329;BME280;5719;42.714;23.732;2024-03-07T11:00:12;94307.69;;;7.75;100.00
11329;BME280;5719;42.714;23.732;2024-03-07T11:02:55;94289.53;;;7.64;100.00
11329;BME280;5719;42.714;23.732;2024-03-07T11:05:25;94288.78;;;7.62;100.00
11329;BME280;5719;42.714;23.732;2024-03-07T11:07:56;94297.25;;;7.64;100.00
11329;BME280;5719;42.714;23.732;2024-03-07T11:10:24;94288.16;;;7.59;100.00
11329;BME280;5719;42.714;23.732;2024-03-07T11:12:53;94298.34;;;7.60;100.00
11329;BME280;5719;42.714;23.732;2024-03-07T11:15:22;94294.53;;;7.53;100.00
11329;BME280;5719;42.714;23.732;2024-03-07T11:17:51;94298.88;;;7.65;100.00
11329;BME280;5719;42.714;23.732;2024-03-07T11:20:21;94299.91;;;7.63;100.00
11329;BME280;5719;42.714;23.732;2024-03-07T11:22:48;94296.69;;;7.59;100.00
11329;BME280;5719;42.714;23.732;2024-03-07T11:25:18;94293.41;;;7.57;100.00
11329;BME280;5719;42.714;23.732;2024-03-07T11:27:58;94287.88;;;7.63;100.00
11329;BME280;5719;42.714;23.732;2024-03-07T11:30:25;94283.59;;;7.50;100.00
11329;BME280;5719;42.714;23.732;2024-03-07T11:32:53;94298.06;;;7.65;100.00
11329;BME280;5719;42.714;23.732;2024-03-07T11:35:20;94291.16;;;7.65;100.00
11329;BME280;5719;42.714;23.732;2024-03-07T11:37:56;94292.94;;;7.65;100.00
11329;BME280;5719;42.714;23.732;2024-03-07T11:40:46;94289.72;;;7.61;100.00
11329;BME280;5719;42.714;23.732;2024-03-07T11:43:17;94287.00;;;7.50;100.00
11329;BME280;5719;42.714;23.732;2024-03-07T11:45:43;94288.94;;;7.47;100.00
11329;BME280;5719;42.714;23.732;2024-03-07T11:48:17;94288.78;;;7.35;100.00
11329;BME280;5719;42.714;23.732;2024-03-07T11:50:46;94289.59;;;7.36;100.00
11329;BME280;5719;42.714;23.732;2024-03-07T11:53:14;94286.84;;;7.39;100.00
11329;BME280;5719;42.714;23.732;2024-03-07T11:55:41;94287.97;;;7.35;100.00
11329;BME280;5719;42.714;23.732;2024-03-07T11:58:10;94281.75;;;7.25;100.00
11329;BME280;5719;42.714;23.732;2024-03-07T12:00:40;94278.50;;;7.21;100.00
11329;BME280;5719;42.714;23.732;2024-03-07T12:03:11;94284.59;;;7.20;100.00
11329;BME280;5719;42.714;23.732;2024-03-07T12:05:39;94273.09;;;7.26;100.00
11329;BME280;5719;42.714;23.732;2024-03-07T12:08:07;94271.06;;;7.31;100.00
11329;BME280;5719;42.714;23.732;2024-03-07T12:10:35;94274.66;;;7.28;100.00
11329;BME280;5719;42.714;23.732;2024-03-07T12:13:05;94274.34;;;7.33;100.00
11329;BME280;5719;42.714;23.732;2024-03-07T12:15:32;94269.03;;;7.36;100.00
11329;BME280;5719;42.714;23.732;2024-03-07T12:18:03;94278.34;;;7.51;100.00
11329;BME280;5719;42.714;23.732;2024-03-07T12:20:38;94277.09;;;7.44;100.00
11329;BME280;5719;42.714;23.732;2024-03-07T12:23:07;94281.88;;;7.50;100.00
11329;BME280;5719;42.714;23.732;2024-03-07T12:25:35;94277.28;;;7.41;100.00
11329;BME280;5719;42.714;23.732;2024-03-07T12:28:03;94279.84;;;7.41;100.00
11329;BME280;5719;42.714;23.732;2024-03-07T12:30:35;94278.63;;;7.20;100.00
11329;BME280;5719;42.714;23.732;2024-03-07T12:33:06;94279.66;;;7.17;100.00
11329;BME280;5719;42.714;23.732;2024-03-07T12:35:34;94264.66;;;7.24;100.00
11329;BME280;5719;42.714;23.732;2024-03-07T12:38:01;94266.69;;;7.19;100.00
11329;BME280;5719;42.714;23.732;2024-03-07T12:40:29;94269.44;;;7.16;100.00
11329;BME280;5719;42.714;23.732;2024-03-07T12:42:59;94248.16;;;7.14;100.00
11329;BME280;5719;42.714;23.732;2024-03-07T12:45:28;94256.84;;;7.25;100.00
11329;BME280;5719;42.714;23.732;2024-03-07T12:47:59;94269.03;;;7.36;100.00
11329;BME280;5719;42.714;23.732;2024-03-07T12:50:31;94260.31;;;7.38;100.00
11329;BME280;5719;42.714;23.732;2024-03-07T12:53:00;94262.91;;;7.51;100.00
11329;BME280;5719;42.714;23.732;2024-03-07T12:55:31;94268.50;;;7.58;100.00
11329;BME280;5719;42.714;23.732;2024-03-07T12:57:58;94260.63;;;7.73;100.00
11329;BME280;5719;42.714;23.732;2024-03-07T13:00:24;94264.44;;;7.80;100.00
11329;BME280;5719;42.714;23.732;2024-03-07T13:02:51;94254.56;;;7.87;100.00
11329;BME280;5719;42.714;23.732;2024-03-07T13:05:22;94265.31;;;7.94;100.00